sensor_id;sensor_type;location;lat;lon;timestamp;temperature;humidity
24860;DHT22;12936;52.006;4.350;2023-03-14T00:01:20;11.20;99.90
24860;DHT22;12936;52.006;4.350;2023-03-14T00:03:51;11.20;99.90
24860;DHT22;12936;52.006;4.350;2023-03-14T00:06:20;11.20;99.90
24860;DHT22;12936;52.006;4.350;2023-03-14T00:08:51;11.20;99.90
24860;DHT22;12936;52.006;4.350;2023-03-14T00:11:26;11.20;99.90
24860;DHT22;12936;52.006;4.350;2023-03-14T00:13:57;11.20;99.90
24860;DHT22;12936;52.006;4.350;2023-03-14T00:16:28;11.20;99.90
24860;DHT22;12936;52.006;4.350;2023-03-14T00:18:59;11.20;99.90
24860;DHT22;12936;52.006;4.350;2023-03-14T00:21:30;11.20;99.90
24860;DHT22;12936;52.006;4.350;2023-03-14T00:24:02;11.20;99.90
24860;DHT22;12936;52.006;4.350;2023-03-14T00:26:31;11.20;99.90
24860;DHT22;12936;52.006;4.350;2023-03-14T00:29:24;11.20;99.90
24860;DHT22;12936;52.006;4.350;2023-03-14T00:31:54;11.20;99.90
24860;DHT22;12936;52.006;4.350;2023-03-14T00:34:22;11.20;99.90
24860;DHT22;12936;52.006;4.350;2023-03-14T00:36:51;11.20;99.90
24860;DHT22;12936;52.006;4.350;2023-03-14T00:39:21;11.20;99.90
24860;DHT22;12936;52.006;4.350;2023-03-14T00:41:54;11.20;99.90
24860;DHT22;12936;52.006;4.350;2023-03-14T00:44:23;11.20;99.90
24860;DHT22;12936;52.006;4.350;2023-03-14T00:46:54;11.10;99.90
24860;DHT22;12936;52.006;4.350;2023-03-14T00:49:22;11.10;99.90
24860;DHT22;12936;52.006;4.350;2023-03-14T00:51:52;11.10;99.90
24860;DHT22;12936;52.006;4.350;2023-03-14T00:54:26;11.00;99.90
24860;DHT22;12936;52.006;4.350;2023-03-14T00:56:54;11.10;99.90
24860;DHT22;12936;52.006;4.350;2023-03-14T00:59:24;11.10;99.90
24860;DHT22;12936;52.006;4.350;2023-03-14T01:01:52;11.10;99.90
24860;DHT22;12936;52.006;4.350;2023-03-14T01:04:21;11.10;99.90
24860;DHT22;12936;52.006;4.350;2023-03-14T01:06:51;11.10;99.90
24860;DHT22;12936;52.006;4.350;2023-03-14T01:09:19;11.10;99.90
24860;DHT22;12936;52.006;4.350;2023-03-14T01:11:49;11.10;99.90
24860;DHT22;12936;52.006;4.350;2023-03-14T01:14:17;11.10;99.90
24860;DHT22;12936;52.006;4.350;2023-03-14T01:16:46;11.10;99.90
24860;DHT22;12936;52.006;4.350;2023-03-14T01:19:16;11.10;99.90
24860;DHT22;12936;52.006;4.350;2023-03-14T01:21:47;11.10;99.90
24860;DHT22;12936;52.006;4.350;2023-03-14T01:24:17;11.00;99.90
24860;DHT22;12936;52.006;4.350;2023-03-14T01:26:45;11.00;99.90
24860;DHT22;12936;52.006;4.350;2023-03-14T01:29:16;11.00;99.90
24860;DHT22;12936;52.006;4.350;2023-03-14T01:31:47;11.00;99.90
24860;DHT22;12936;52.006;4.350;2023-03-14T01:34:15;11.00;99.90
24860;DHT22;12936;52.006;4.350;2023-03-14T01:36:46;11.00;99.90
24860;DHT22;12936;52.006;4.350;2023-03-14T01:39:22;11.00;99.90
24860;DHT22;12936;52.006;4.350;2023-03-14T01:41:53;10.90;99.90
24860;DHT22;12936;52.006;4.350;2023-03-14T01:44:23;11.00;99.90
24860;DHT22;12936;52.006;4.350;2023-03-14T01:46:53;10.90;99.90
24860;DHT22;12936;52.006;4.350;2023-03-14T01:49:27;11.00;99.90
24860;DHT22;12936;52.006;4.350;2023-03-14T01:52:00;11.00;99.90
24860;DHT22;12936;52.006;4.350;2023-03-14T01:54:37;11.00;99.90
24860;DHT22;12936;52.006;4.350;2023-03-14T01:57:08;11.00;99.90
24860;DHT22;12936;52.006;4.350;2023-03-14T01:59:42;11.00;99.90
24860;DHT22;12936;52.006;4.350;2023-03-14T02:02:12;11.00;99.90
24860;DHT22;12936;52.006;4.350;2023-03-14T02:04:43;11.00;99.90
24860;DHT22;12936;52.006;4.350;2023-03-14T02:07:17;11.00;99.90
24860;DHT22;12936;52.006;4.350;2023-03-14T02:09:50;11.00;99.90
24860;DHT22;12936;52.006;4.350;2023-03-14T02:12:20;11.00;99.90
24860;DHT22;12936;52.006;4.350;2023-03-14T02:14:53;11.00;99.90
24860;DHT22;12936;52.006;4.350;2023-03-14T02:17:23;11.00;99.90
24860;DHT22;12936;52.006;4.350;2023-03-14T02:20:23;10.90;99.90
24860;DHT22;12936;52.006;4.350;2023-03-14T02:22:54;11.00;99.90
24860;DHT22;12936;52.006;4.350;2023-03-14T02:25:28;11.00;99.90
24860;DHT22;12936;52.006;4.350;2023-03-14T02:28:01;11.00;99.90
24860;DHT22;12936;52.006;4.350;2023-03-14T02:30:33;11.00;99.90
24860;DHT22;12936;52.006;4.350;2023-03-14T02:33:07;11.00;99.90
24860;DHT22;12936;52.006;4.350;2023-03-14T02:35:50;11.00;99.90
24860;DHT22;12936;52.006;4.350;2023-03-14T02:38:26;11.00;99.90
24860;DHT22;12936;52.006;4.350;2023-03-14T02:41:19;11.00;99.90
24860;DHT22;12936;52.006;4.350;2023-03-14T02:44:25;10.90;99.90
24860;DHT22;12936;52.006;4.350;2023-03-14T02:46:56;11.00;99.90
24860;DHT22;12936;52.006;4.350;2023-03-14T02:49:29;11.00;99.90
24860;DHT22;12936;52.006;4.350;2023-03-14T02:51:57;11.00;99.90
24860;DHT22;12936;52.006;4.350;2023-03-14T02:54:26;10.90;99.90
24860;DHT22;12936;52.006;4.350;2023-03-14T02:56:56;10.90;99.90
24860;DHT22;12936;52.006;4.350;2023-03-14T02:59:28;10.90;99.90
24860;DHT22;12936;52.006;4.350;2023-03-14T03:01:56;10.90;99.90
24860;DHT22;12936;52.006;4.350;2023-03-14T03:04:28;10.90;99.90
24860;DHT22;12936;52.006;4.350;2023-03-14T03:06:58;11.00;99.90
24860;DHT22;12936;52.006;4.350;2023-03-14T03:09:28;11.00;99.90
24860;DHT22;12936;52.006;4.350;2023-03-14T03:11:57;10.90;99.90
24860;DHT22;12936;52.006;4.350;2023-03-14T03:14:25;11.00;99.90
24860;DHT22;12936;52.006;4.350;2023-03-14T03:16:56;11.00;99.90
24860;DHT22;12936;52.006;4.350;2023-03-14T03:19:28;11.00;99.90
24860;DHT22;12936;52.006;4.350;2023-03-14T03:21:58;11.00;99.90
24860;DHT22;12936;52.006;4.350;2023-03-14T03:24:49;11.00;99.90
24860;DHT22;12936;52.006;4.350;2023-03-14T03:27:40;11.00;99.90
24860;DHT22;12936;52.006;4.350;2023-03-14T03:30:10;11.00;99.90
24860;DHT22;12936;52.006;4.350;2023-03-14T03:32:40;11.00;99.90
24860;DHT22;12936;52.006;4.350;2023-03-14T03:35:09;11.00;99.90
24860;DHT22;12936;52.006;4.350;2023-03-14T03:37:41;11.00;99.90
24860;DHT22;12936;52.006;4.350;2023-03-14T03:40:10;11.00;99.90
24860;DHT22;12936;52.006;4.350;2023-03-14T03:42:39;11.00;99.90
24860;DHT22;12936;52.006;4.350;2023-03-14T03:45:08;11.00;99.90
24860;DHT22;12936;52.006;4.350;2023-03-14T03:47:37;11.00;99.90
24860;DHT22;12936;52.006;4.350;2023-03-14T03:50:10;11.00;99.90
24860;DHT22;12936;52.006;4.350;2023-03-14T03:52:38;11.00;99.90
24860;DHT22;12936;52.006;4.350;2023-03-14T03:55:08;10.90;99.90
24860;DHT22;12936;52.006;4.350;2023-03-14T03:57:37;11.00;99.90
24860;DHT22;12936;52.006;4.350;2023-03-14T04:00:14;11.00;99.90
24860;DHT22;12936;52.006;4.350;2023-03-14T04:02:44;10.90;99.90
24860;DHT22;12936;52.006;4.350;2023-03-14T04:05:17;10.90;99.90
24860;DHT22;12936;52.006;4.350;2023-03-14T04:07:49;10.90;99.90
24860;DHT22;12936;52.006;4.350;2023-03-14T04:10:17;10.90;99.90
24860;DHT22;12936;52.006;4.350;2023-03-14T04:12:46;10.90;99.90
24860;DHT22;12936;52.006;4.350;2023-03-14T04:15:16;10.90;99.90
24860;DHT22;12936;52.006;4.350;2023-03-14T04:17:46;10.90;99.90
24860;DHT22;12936;52.006;4.350;2023-03-14T04:20:16;10.80;99.90
24860;DHT22;12936;52.006;4.350;2023-03-14T04:22:44;10.80;99.90
24860;DHT22;12936;52.006;4.350;2023-03-14T04:25:15;10.80;99.90
24860;DHT22;12936;52.006;4.350;2023-03-14T04:27:47;10.80;99.90
24860;DHT22;12936;52.006;4.350;2023-03-14T04:30:19;10.80;99.90
24860;DHT22;12936;52.006;4.350;2023-03-14T04:32:47;10.80;99.90
24860;DHT22;12936;52.006;4.350;2023-03-14T04:35:19;10.80;99.90
24860;DHT22;12936;52.006;4.350;2023-03-14T04:37:47;10.80;99.90
24860;DHT22;12936;52.006;4.350;2023-03-14T04:40:16;10.80;99.90
24860;DHT22;12936;52.006;4.350;2023-03-14T04:42:44;10.80;99.90
24860;DHT22;12936;52.006;4.350;2023-03-14T04:45:13;10.80;99.90
24860;DHT22;12936;52.006;4.350;2023-03-14T04:47:42;10.70;99.90
24860;DHT22;12936;52.006;4.350;2023-03-14T04:50:12;10.70;99.90
24860;DHT22;12936;52.006;4.350;2023-03-14T04:52:43;10.70;99.90
24860;DHT22;12936;52.006;4.350;2023-03-14T04:55:11;10.70;99.90
24860;DHT22;12936;52.006;4.350;2023-03-14T04:57:39;10.70;99.90
24860;DHT22;12936;52.006;4.350;2023-03-14T05:00:08;10.70;99.90
24860;DHT22;12936;52.006;4.350;2023-03-14T05:02:37;10.70;99.90
24860;DHT22;12936;52.006;4.350;2023-03-14T05:05:06;10.70;99.90
24860;DHT22;12936;52.006;4.350;2023-03-14T05:07:34;10.60;99.90
24860;DHT22;12936;52.006;4.350;2023-03-14T05:10:06;10.60;99.90
24860;DHT22;12936;52.006;4.350;2023-03-14T05:12:34;10.50;99.90
24860;DHT22;12936;52.006;4.350;2023-03-14T05:15:04;10.50;99.90
24860;DHT22;12936;52.006;4.350;2023-03-14T05:17:35;10.50;99.90
24860;DHT22;12936;52.006;4.350;2023-03-14T05:20:04;10.50;99.90
24860;DHT22;12936;52.006;4.350;2023-03-14T05:22:35;10.30;99.90
24860;DHT22;12936;52.006;4.350;2023-03-14T05:25:08;10.20;99.90
24860;DHT22;12936;52.006;4.350;2023-03-14T05:27:36;10.20;99.90
24860;DHT22;12936;52.006;4.350;2023-03-14T05:30:06;10.10;99.90
24860;DHT22;12936;52.006;4.350;2023-03-14T05:32:36;10.00;99.90
24860;DHT22;12936;52.006;4.350;2023-03-14T05:35:06;9.90;99.90
24860;DHT22;12936;52.006;4.350;2023-03-14T05:37:35;9.80;99.90
24860;DHT22;12936;52.006;4.350;2023-03-14T05:40:10;9.70;99.90
24860;DHT22;12936;52.006;4.350;2023-03-14T05:42:41;9.60;99.90
24860;DHT22;12936;52.006;4.350;2023-03-14T05:45:10;9.60;99.90
24860;DHT22;12936;52.006;4.350;2023-03-14T05:47:41;9.50;99.90
24860;DHT22;12936;52.006;4.350;2023-03-14T05:50:10;9.50;99.90
24860;DHT22;12936;52.006;4.350;2023-03-14T05:52:38;9.40;99.90
24860;DHT22;12936;52.006;4.350;2023-03-14T05:55:09;9.40;99.90
24860;DHT22;12936;52.006;4.350;2023-03-14T05:57:40;9.30;99.90
24860;DHT22;12936;52.006;4.350;2023-03-14T06:00:11;9.20;99.90
24860;DHT22;12936;52.006;4.350;2023-03-14T06:02:41;9.20;99.90
24860;DHT22;12936;52.006;4.350;2023-03-14T06:05:09;9.20;99.90
24860;DHT22;12936;52.006;4.350;2023-03-14T06:07:37;9.20;99.90
24860;DHT22;12936;52.006;4.350;2023-03-14T06:10:09;9.20;99.90
24860;DHT22;12936;52.006;4.350;2023-03-14T06:12:38;9.10;99.90
24860;DHT22;12936;52.006;4.350;2023-03-14T06:15:07;9.00;99.90
24860;DHT22;12936;52.006;4.350;2023-03-14T06:17:35;9.00;99.90
24860;DHT22;12936;52.006;4.350;2023-03-14T06:20:04;9.00;99.90
24860;DHT22;12936;52.006;4.350;2023-03-14T06:22:32;8.90;99.90
24860;DHT22;12936;52.006;4.350;2023-03-14T06:25:00;8.90;99.90
24860;DHT22;12936;52.006;4.350;2023-03-14T06:27:30;8.80;99.90
24860;DHT22;12936;52.006;4.350;2023-03-14T06:29:59;8.70;99.90
24860;DHT22;12936;52.006;4.350;2023-03-14T06:32:27;8.70;99.90
24860;DHT22;12936;52.006;4.350;2023-03-14T06:34:55;8.70;99.90
24860;DHT22;12936;52.006;4.350;2023-03-14T06:37:28;8.70;99.90
24860;DHT22;12936;52.006;4.350;2023-03-14T06:39:56;8.70;99.90
24860;DHT22;12936;52.006;4.350;2023-03-14T06:42:25;8.70;99.90
24860;DHT22;12936;52.006;4.350;2023-03-14T06:44:54;8.70;99.90
24860;DHT22;12936;52.006;4.350;2023-03-14T06:47:23;8.70;99.90
24860;DHT22;12936;52.006;4.350;2023-03-14T06:49:51;8.70;99.90
24860;DHT22;12936;52.006;4.350;2023-03-14T06:52:19;8.70;99.90
24860;DHT22;12936;52.006;4.350;2023-03-14T06:54:47;8.70;99.90
24860;DHT22;12936;52.006;4.350;2023-03-14T06:57:15;8.70;99.90
24860;DHT22;12936;52.006;4.350;2023-03-14T06:59:44;8.70;99.90
24860;DHT22;12936;52.006;4.350;2023-03-14T07:02:13;8.70;99.90
24860;DHT22;12936;52.006;4.350;2023-03-14T07:04:41;8.60;99.90
24860;DHT22;12936;52.006;4.350;2023-03-14T07:07:10;8.70;99.90
24860;DHT22;12936;52.006;4.350;2023-03-14T07:09:40;8.70;99.90
24860;DHT22;12936;52.006;4.350;2023-03-14T07:12:08;8.70;99.90
24860;DHT22;12936;52.006;4.350;2023-03-14T07:14:36;8.70;99.90
24860;DHT22;12936;52.006;4.350;2023-03-14T07:17:04;8.70;99.90
24860;DHT22;12936;52.006;4.350;2023-03-14T07:19:33;8.70;99.90
24860;DHT22;12936;52.006;4.350;2023-03-14T07:22:02;8.70;99.90
24860;DHT22;12936;52.006;4.350;2023-03-14T07:24:30;8.70;99.90
24860;DHT22;12936;52.006;4.350;2023-03-14T07:26:58;8.70;99.90
24860;DHT22;12936;52.006;4.350;2023-03-14T07:29:26;8.60;99.90
24860;DHT22;12936;52.006;4.350;2023-03-14T07:31:54;8.60;99.90
24860;DHT22;12936;52.006;4.350;2023-03-14T07:34:22;8.60;99.90
24860;DHT22;12936;52.006;4.350;2023-03-14T07:36:51;8.60;99.90
24860;DHT22;12936;52.006;4.350;2023-03-14T07:39:19;8.70;99.90
24860;DHT22;12936;52.006;4.350;2023-03-14T07:41:48;8.60;99.90
24860;DHT22;12936;52.006;4.350;2023-03-14T07:44:16;8.60;99.90
24860;DHT22;12936;52.006;4.350;2023-03-14T07:46:44;8.50;99.90
24860;DHT22;12936;52.006;4.350;2023-03-14T07:49:12;8.40;99.90
24860;DHT22;12936;52.006;4.350;2023-03-14T07:51:40;8.40;99.90
24860;DHT22;12936;52.006;4.350;2023-03-14T07:54:11;8.40;99.90
24860;DHT22;12936;52.006;4.350;2023-03-14T07:56:39;8.40;99.90
24860;DHT22;12936;52.006;4.350;2023-03-14T07:59:07;8.30;99.90
24860;DHT22;12936;52.006;4.350;2023-03-14T08:01:36;8.20;99.90
24860;DHT22;12936;52.006;4.350;2023-03-14T08:04:04;8.20;99.90
24860;DHT22;12936;52.006;4.350;2023-03-14T08:06:32;8.10;99.90
24860;DHT22;12936;52.006;4.350;2023-03-14T08:09:00;8.00;99.90
24860;DHT22;12936;52.006;4.350;2023-03-14T08:11:29;8.00;99.90
24860;DHT22;12936;52.006;4.350;2023-03-14T08:13:57;7.90;99.90
24860;DHT22;12936;52.006;4.350;2023-03-14T08:16:25;7.90;99.90
24860;DHT22;12936;52.006;4.350;2023-03-14T08:18:54;7.90;99.90
24860;DHT22;12936;52.006;4.350;2023-03-14T08:21:22;7.90;99.90
24860;DHT22;12936;52.006;4.350;2023-03-14T08:23:51;7.90;99.90
24860;DHT22;12936;52.006;4.350;2023-03-14T08:26:19;7.80;99.90
24860;DHT22;12936;52.006;4.350;2023-03-14T08:28:48;7.80;99.90
24860;DHT22;12936;52.006;4.350;2023-03-14T08:31:17;7.80;99.90
24860;DHT22;12936;52.006;4.350;2023-03-14T08:33:46;7.70;99.90
24860;DHT22;12936;52.006;4.350;2023-03-14T08:36:14;7.60;99.90
24860;DHT22;12936;52.006;4.350;2023-03-14T08:38:42;7.50;99.90
24860;DHT22;12936;52.006;4.350;2023-03-14T08:41:10;7.50;99.90
24860;DHT22;12936;52.006;4.350;2023-03-14T08:43:39;7.40;99.90
24860;DHT22;12936;52.006;4.350;2023-03-14T08:46:10;7.50;99.90
24860;DHT22;12936;52.006;4.350;2023-03-14T08:48:39;7.50;99.90
24860;DHT22;12936;52.006;4.350;2023-03-14T08:51:09;7.60;99.90
24860;DHT22;12936;52.006;4.350;2023-03-14T08:53:39;7.60;99.90
24860;DHT22;12936;52.006;4.350;2023-03-14T08:56:08;7.50;99.90
24860;DHT22;12936;52.006;4.350;2023-03-14T08:58:37;7.60;99.90
24860;DHT22;12936;52.006;4.350;2023-03-14T09:01:09;7.60;99.90
24860;DHT22;12936;52.006;4.350;2023-03-14T09:03:38;7.70;99.90
24860;DHT22;12936;52.006;4.350;2023-03-14T09:06:07;7.80;99.90
24860;DHT22;12936;52.006;4.350;2023-03-14T09:08:37;7.70;99.90
24860;DHT22;12936;52.006;4.350;2023-03-14T09:11:07;7.80;99.90
24860;DHT22;12936;52.006;4.350;2023-03-14T09:13:36;7.90;99.90
24860;DHT22;12936;52.006;4.350;2023-03-14T09:16:06;7.90;99.90
24860;DHT22;12936;52.006;4.350;2023-03-14T09:18:36;7.90;99.90
24860;DHT22;12936;52.006;4.350;2023-03-14T09:21:04;7.90;99.90
24860;DHT22;12936;52.006;4.350;2023-03-14T09:23:32;8.00;99.90
24860;DHT22;12936;52.006;4.350;2023-03-14T09:26:00;8.00;99.90
24860;DHT22;12936;52.006;4.350;2023-03-14T09:28:28;8.10;99.90
24860;DHT22;12936;52.006;4.350;2023-03-14T09:30:57;8.00;99.90
24860;DHT22;12936;52.006;4.350;2023-03-14T09:33:25;8.00;99.90
24860;DHT22;12936;52.006;4.350;2023-03-14T09:35:58;7.90;99.90
24860;DHT22;12936;52.006;4.350;2023-03-14T09:38:28;7.70;99.90
24860;DHT22;12936;52.006;4.350;2023-03-14T09:41:00;7.70;99.90
24860;DHT22;12936;52.006;4.350;2023-03-14T09:43:30;7.60;99.90
24860;DHT22;12936;52.006;4.350;2023-03-14T09:46:01;7.60;99.90
24860;DHT22;12936;52.006;4.350;2023-03-14T09:48:31;7.70;99.90
24860;DHT22;12936;52.006;4.350;2023-03-14T09:51:04;7.80;99.90
24860;DHT22;12936;52.006;4.350;2023-03-14T09:53:37;7.80;99.90
24860;DHT22;12936;52.006;4.350;2023-03-14T09:56:12;7.80;99.90
24860;DHT22;12936;52.006;4.350;2023-03-14T09:58:43;7.90;99.90
24860;DHT22;12936;52.006;4.350;2023-03-14T10:01:15;7.90;99.90
24860;DHT22;12936;52.006;4.350;2023-03-14T10:03:45;7.90;99.90
24860;DHT22;12936;52.006;4.350;2023-03-14T10:06:15;7.90;99.90
24860;DHT22;12936;52.006;4.350;2023-03-14T10:08:44;8.00;99.90
24860;DHT22;12936;52.006;4.350;2023-03-14T10:11:14;8.00;99.90
24860;DHT22;12936;52.006;4.350;2023-03-14T10:14:04;8.10;99.90
24860;DHT22;12936;52.006;4.350;2023-03-14T10:16:34;8.00;99.90
24860;DHT22;12936;52.006;4.350;2023-03-14T10:19:04;8.00;99.90
24860;DHT22;12936;52.006;4.350;2023-03-14T10:21:38;8.10;99.90
24860;DHT22;12936;52.006;4.350;2023-03-14T10:24:18;8.10;99.90
24860;DHT22;12936;52.006;4.350;2023-03-14T10:26:49;8.30;99.90
24860;DHT22;12936;52.006;4.350;2023-03-14T10:29:18;8.20;99.90
24860;DHT22;12936;52.006;4.350;2023-03-14T10:31:51;8.20;99.90
24860;DHT22;12936;52.006;4.350;2023-03-14T10:34:25;8.20;99.90
24860;DHT22;12936;52.006;4.350;2023-03-14T10:36:57;8.20;99.90
24860;DHT22;12936;52.006;4.350;2023-03-14T10:39:41;8.20;99.90
24860;DHT22;12936;52.006;4.350;2023-03-14T10:42:19;8.10;99.90
24860;DHT22;12936;52.006;4.350;2023-03-14T10:44:51;8.10;99.90
24860;DHT22;12936;52.006;4.350;2023-03-14T10:47:24;8.00;99.90
24860;DHT22;12936;52.006;4.350;2023-03-14T10:49:53;8.00;99.90
24860;DHT22;12936;52.006;4.350;2023-03-14T10:52:24;8.00;99.90
24860;DHT22;12936;52.006;4.350;2023-03-14T10:55:11;8.00;99.90
24860;DHT22;12936;52.006;4.350;2023-03-14T10:57:39;7.90;99.90
24860;DHT22;12936;52.006;4.350;2023-03-14T11:00:14;8.00;99.90
24860;DHT22;12936;52.006;4.350;2023-03-14T11:03:02;8.00;99.90
24860;DHT22;12936;52.006;4.350;2023-03-14T11:05:35;8.00;99.90
24860;DHT22;12936;52.006;4.350;2023-03-14T11:08:12;8.00;99.90
24860;DHT22;12936;52.006;4.350;2023-03-14T11:10:47;7.90;99.90
24860;DHT22;12936;52.006;4.350;2023-03-14T11:13:20;7.80;99.90
24860;DHT22;12936;52.006;4.350;2023-03-14T11:15:57;7.80;99.90
24860;DHT22;12936;52.006;4.350;2023-03-14T11:19:03;7.80;99.90
24860;DHT22;12936;52.006;4.350;2023-03-14T11:21:42;7.80;99.90
24860;DHT22;12936;52.006;4.350;2023-03-14T11:24:27;7.70;99.90
24860;DHT22;12936;52.006;4.350;2023-03-14T11:27:06;7.80;99.90
24860;DHT22;12936;52.006;4.350;2023-03-14T11:29:39;7.70;99.90
24860;DHT22;12936;52.006;4.350;2023-03-14T11:32:13;7.70;99.90
24860;DHT22;12936;52.006;4.350;2023-03-14T11:34:48;7.70;99.90
24860;DHT22;12936;52.006;4.350;2023-03-14T11:37:24;7.70;99.90
24860;DHT22;12936;52.006;4.350;2023-03-14T11:40:00;7.70;99.90
24860;DHT22;12936;52.006;4.350;2023-03-14T11:42:32;7.70;99.90
24860;DHT22;12936;52.006;4.350;2023-03-14T11:45:01;7.70;99.90
24860;DHT22;12936;52.006;4.350;2023-03-14T11:47:32;7.70;99.90
24860;DHT22;12936;52.006;4.350;2023-03-14T11:50:08;7.80;99.90
24860;DHT22;12936;52.006;4.350;2023-03-14T11:52:45;7.90;99.90
24860;DHT22;12936;52.006;4.350;2023-03-14T11:55:21;7.90;99.90
24860;DHT22;12936;52.006;4.350;2023-03-14T11:57:58;7.90;99.90
24860;DHT22;12936;52.006;4.350;2023-03-14T12:00:29;8.00;99.90
24860;DHT22;12936;52.006;4.350;2023-03-14T12:03:02;8.20;99.90
24860;DHT22;12936;52.006;4.350;2023-03-14T12:05:43;8.30;99.90
24860;DHT22;12936;52.006;4.350;2023-03-14T12:08:37;8.40;99.90
24860;DHT22;12936;52.006;4.350;2023-03-14T12:13:54;8.40;99.90
24860;DHT22;12936;52.006;4.350;2023-03-14T12:16:30;8.50;99.90
24860;DHT22;12936;52.006;4.350;2023-03-14T12:19:14;8.40;99.90
24860;DHT22;12936;52.006;4.350;2023-03-14T12:21:51;8.40;99.90
24860;DHT22;12936;52.006;4.350;2023-03-14T12:24:23;8.50;99.90
24860;DHT22;12936;52.006;4.350;2023-03-14T12:26:55;8.50;99.90
24860;DHT22;12936;52.006;4.350;2023-03-14T12:29:24;8.50;99.90
24860;DHT22;12936;52.006;4.350;2023-03-14T12:32:22;8.50;99.90
24860;DHT22;12936;52.006;4.350;2023-03-14T12:34:51;8.50;99.90
24860;DHT22;12936;52.006;4.350;2023-03-14T12:37:42;8.50;99.90
24860;DHT22;12936;52.006;4.350;2023-03-14T12:40:16;8.50;99.90
24860;DHT22;12936;52.006;4.350;2023-03-14T12:42:57;8.50;99.90
24860;DHT22;12936;52.006;4.350;2023-03-14T12:45:28;8.40;99.90
24860;DHT22;12936;52.006;4.350;2023-03-14T12:48:11;8.30;99.90
24860;DHT22;12936;52.006;4.350;2023-03-14T12:50:44;8.20;99.90
24860;DHT22;12936;52.006;4.350;2023-03-14T12:53:45;8.10;99.90
24860;DHT22;12936;52.006;4.350;2023-03-14T12:56:23;8.10;99.90
24860;DHT22;12936;52.006;4.350;2023-03-14T12:59:05;8.00;99.90
24860;DHT22;12936;52.006;4.350;2023-03-14T13:01:46;8.10;99.90
24860;DHT22;12936;52.006;4.350;2023-03-14T13:04:16;8.20;99.90
24860;DHT22;12936;52.006;4.350;2023-03-14T13:06:56;8.10;99.90
24860;DHT22;12936;52.006;4.350;2023-03-14T13:09:59;8.10;99.90
24860;DHT22;12936;52.006;4.350;2023-03-14T13:12:38;8.10;99.90
24860;DHT22;12936;52.006;4.350;2023-03-14T13:15:18;8.00;99.90
24860;DHT22;12936;52.006;4.350;2023-03-14T13:17:49;8.00;99.90
24860;DHT22;12936;52.006;4.350;2023-03-14T13:20:21;8.00;99.90
24860;DHT22;12936;52.006;4.350;2023-03-14T13:22:51;8.10;99.90
24860;DHT22;12936;52.006;4.350;2023-03-14T13:25:19;8.10;99.90
24860;DHT22;12936;52.006;4.350;2023-03-14T13:27:49;8.10;99.90
24860;DHT22;12936;52.006;4.350;2023-03-14T13:30:25;8.10;99.90
24860;DHT22;12936;52.006;4.350;2023-03-14T13:32:55;8.10;99.90
24860;DHT22;12936;52.006;4.350;2023-03-14T13:35:25;8.10;99.90
24860;DHT22;12936;52.006;4.350;2023-03-14T13:37:58;8.00;99.90
24860;DHT22;12936;52.006;4.350;2023-03-14T13:40:37;8.00;99.90
24860;DHT22;12936;52.006;4.350;2023-03-14T13:43:13;8.00;99.90
24860;DHT22;12936;52.006;4.350;2023-03-14T13:45:50;7.90;99.90
24860;DHT22;12936;52.006;4.350;2023-03-14T13:48:20;7.90;99.90
24860;DHT22;12936;52.006;4.350;2023-03-14T13:50:54;7.90;99.90
24860;DHT22;12936;52.006;4.350;2023-03-14T13:53:23;8.00;99.90
24860;DHT22;12936;52.006;4.350;2023-03-14T13:55:52;7.90;99.90
24860;DHT22;12936;52.006;4.350;2023-03-14T13:58:26;7.90;99.90
24860;DHT22;12936;52.006;4.350;2023-03-14T14:01:02;7.90;99.90
24860;DHT22;12936;52.006;4.350;2023-03-14T14:03:37;7.80;99.90
24860;DHT22;12936;52.006;4.350;2023-03-14T14:06:16;7.80;99.90
24860;DHT22;12936;52.006;4.350;2023-03-14T14:08:45;7.70;99.90
24860;DHT22;12936;52.006;4.350;2023-03-14T14:11:20;7.70;99.90
24860;DHT22;12936;52.006;4.350;2023-03-14T14:13:59;7.70;99.90
24860;DHT22;12936;52.006;4.350;2023-03-14T14:16:30;7.60;99.90
24860;DHT22;12936;52.006;4.350;2023-03-14T14:19:00;7.60;99.90
24860;DHT22;12936;52.006;4.350;2023-03-14T14:21:29;7.60;99.90
24860;DHT22;12936;52.006;4.350;2023-03-14T14:23:58;7.70;99.90
24860;DHT22;12936;52.006;4.350;2023-03-14T14:26:27;7.70;99.90
24860;DHT22;12936;52.006;4.350;2023-03-14T14:28:59;7.80;99.90
24860;DHT22;12936;52.006;4.350;2023-03-14T14:31:28;7.80;99.90
24860;DHT22;12936;52.006;4.350;2023-03-14T14:33:59;7.90;99.90
24860;DHT22;12936;52.006;4.350;2023-03-14T14:36:29;7.90;99.90
24860;DHT22;12936;52.006;4.350;2023-03-14T14:39:00;7.90;99.90
24860;DHT22;12936;52.006;4.350;2023-03-14T14:41:33;7.90;99.90
24860;DHT22;12936;52.006;4.350;2023-03-14T14:44:04;8.00;99.90
24860;DHT22;12936;52.006;4.350;2023-03-14T14:46:34;8.10;99.90
24860;DHT22;12936;52.006;4.350;2023-03-14T14:49:09;8.10;99.90
24860;DHT22;12936;52.006;4.350;2023-03-14T14:51:41;8.30;99.90
24860;DHT22;12936;52.006;4.350;2023-03-14T14:54:13;8.50;99.90
24860;DHT22;12936;52.006;4.350;2023-03-14T14:56:48;8.60;99.90
24860;DHT22;12936;52.006;4.350;2023-03-14T14:59:24;8.60;99.90
24860;DHT22;12936;52.006;4.350;2023-03-14T15:01:59;8.70;99.90
24860;DHT22;12936;52.006;4.350;2023-03-14T15:04:30;8.70;99.90
24860;DHT22;12936;52.006;4.350;2023-03-14T15:06:58;8.80;99.90
24860;DHT22;12936;52.006;4.350;2023-03-14T15:09:26;8.90;99.90
24860;DHT22;12936;52.006;4.350;2023-03-14T15:11:54;8.90;99.90
24860;DHT22;12936;52.006;4.350;2023-03-14T15:14:23;8.90;99.90
24860;DHT22;12936;52.006;4.350;2023-03-14T15:16:51;8.80;99.90
24860;DHT22;12936;52.006;4.350;2023-03-14T15:19:21;8.90;99.90
24860;DHT22;12936;52.006;4.350;2023-03-14T15:21:53;8.80;99.90
24860;DHT22;12936;52.006;4.350;2023-03-14T15:24:21;8.70;99.90
24860;DHT22;12936;52.006;4.350;2023-03-14T15:26:50;8.60;99.90
24860;DHT22;12936;52.006;4.350;2023-03-14T15:29:18;8.50;99.90
24860;DHT22;12936;52.006;4.350;2023-03-14T15:31:46;8.40;99.90
24860;DHT22;12936;52.006;4.350;2023-03-14T15:34:15;8.40;99.90
24860;DHT22;12936;52.006;4.350;2023-03-14T15:36:43;8.40;99.90
24860;DHT22;12936;52.006;4.350;2023-03-14T15:39:13;8.30;99.90
24860;DHT22;12936;52.006;4.350;2023-03-14T15:41:41;8.30;99.90
24860;DHT22;12936;52.006;4.350;2023-03-14T15:44:09;8.20;99.90
24860;DHT22;12936;52.006;4.350;2023-03-14T15:46:37;8.30;99.90
24860;DHT22;12936;52.006;4.350;2023-03-14T15:49:05;8.20;99.90
24860;DHT22;12936;52.006;4.350;2023-03-14T15:51:33;8.20;99.90
24860;DHT22;12936;52.006;4.350;2023-03-14T15:54:01;8.10;99.90
24860;DHT22;12936;52.006;4.350;2023-03-14T15:56:31;8.00;99.90
24860;DHT22;12936;52.006;4.350;2023-03-14T15:58:59;7.90;99.90
24860;DHT22;12936;52.006;4.350;2023-03-14T16:01:27;7.90;99.90
24860;DHT22;12936;52.006;4.350;2023-03-14T16:03:55;7.90;99.90
24860;DHT22;12936;52.006;4.350;2023-03-14T16:06:24;7.90;99.90
24860;DHT22;12936;52.006;4.350;2023-03-14T16:08:52;7.90;99.90
24860;DHT22;12936;52.006;4.350;2023-03-14T16:11:23;7.80;99.90